createdAt,value
2023-02-25T00:01:20.883Z,3.93
2023-02-25T00:03:53.019Z,4.03
2023-02-25T00:06:23.181Z,4.17
2023-02-25T00:08:52.200Z,4.60
2023-02-25T00:11:20.818Z,4.53
2023-02-25T00:13:49.465Z,4.20
2023-02-25T00:16:18.003Z,3.80
2023-02-25T00:18:46.597Z,3.90
2023-02-25T00:21:17.705Z,4.40
2023-02-25T00:23:47.937Z,4.03
2023-02-25T00:26:17.269Z,4.00
2023-02-25T00:28:46.197Z,4.33
2023-02-25T00:31:16.434Z,4.47
2023-02-25T00:33:44.646Z,4.30
2023-02-25T00:36:20.624Z,4.63
2023-02-25T00:38:49.625Z,4.47
2023-02-25T00:41:19.117Z,4.43
2023-02-25T00:43:51.027Z,4.57
2023-02-25T00:46:19.606Z,4.33
2023-02-25T00:48:47.999Z,4.80
2023-02-25T00:51:19.968Z,4.70
2023-02-25T00:53:48.368Z,4.30
2023-02-25T00:56:17.925Z,4.50
2023-02-25T00:58:48.092Z,4.27
2023-02-25T01:01:22.540Z,3.97
2023-02-25T01:03:51.792Z,5.00
2023-02-25T01:06:22.279Z,4.20
2023-02-25T01:08:51.148Z,4.33
2023-02-25T01:11:21.975Z,4.17
2023-02-25T01:13:51.280Z,3.70
2023-02-25T01:16:21.865Z,3.77
2023-02-25T01:18:53.228Z,3.97
2023-02-25T01:21:27.104Z,3.60
2023-02-25T01:23:58.555Z,3.63
2023-02-25T01:26:27.884Z,3.80
2023-02-25T01:28:56.448Z,3.50
2023-02-25T01:31:29.178Z,4.00
2023-02-25T01:33:58.686Z,3.63
2023-02-25T01:36:28.798Z,3.53
2023-02-25T01:38:58.368Z,3.47
2023-02-25T01:41:27.204Z,3.60
2023-02-25T01:44:10.578Z,3.17
2023-02-25T01:46:39.508Z,3.40
2023-02-25T01:49:12.336Z,2.90
2023-02-25T01:51:42.879Z,3.07
2023-02-25T01:54:11.957Z,3.40
2023-02-25T01:56:43.321Z,3.10
2023-02-25T01:59:13.723Z,2.80
2023-02-25T02:01:42.152Z,2.83
2023-02-25T02:04:14.447Z,2.60
2023-02-25T02:06:45.570Z,2.60
2023-02-25T02:09:18.786Z,2.90
2023-02-25T02:11:46.696Z,2.90
2023-02-25T02:14:18.048Z,2.80
2023-02-25T02:17:09.294Z,2.67
2023-02-25T02:20:08.926Z,2.60
2023-02-25T02:22:46.961Z,2.90
2023-02-25T02:25:59.492Z,3.00
2023-02-25T02:29:04.668Z,2.80
2023-02-25T02:31:51.519Z,2.57
2023-02-25T02:34:37.035Z,2.40
2023-02-25T02:37:22.870Z,2.27
2023-02-25T02:40:00.312Z,2.43
2023-02-25T02:42:38.698Z,2.60
2023-02-25T02:45:13.964Z,2.67
2023-02-25T02:47:47.205Z,2.60
2023-02-25T02:56:39.126Z,2.53
2023-02-25T02:59:13.147Z,2.80
2023-02-25T03:01:47.032Z,2.80
2023-02-25T03:04:22.532Z,3.00
2023-02-25T03:06:54.348Z,1.97
2023-02-25T03:09:26.671Z,2.70
2023-02-25T03:11:54.715Z,2.70
2023-02-25T03:14:22.937Z,2.47
2023-02-25T03:16:57.281Z,2.67
2023-02-25T03:19:33.066Z,2.70
2023-02-25T03:22:08.620Z,2.53
2023-02-25T03:24:42.671Z,2.83
2023-02-25T03:27:34.765Z,2.37
2023-02-25T03:30:12.547Z,2.13
2023-02-25T03:32:44.476Z,2.50
2023-02-25T03:35:16.161Z,3.00
2023-02-25T03:37:49.870Z,2.53
2023-02-25T03:40:20.672Z,2.13
2023-02-25T03:42:55.838Z,1.90
2023-02-25T03:45:25.808Z,2.60
2023-02-25T03:47:55.082Z,1.93
2023-02-25T03:50:27.480Z,1.87
2023-02-25T03:52:59.675Z,2.10
2023-02-25T03:55:51.274Z,1.57
2023-02-25T03:58:19.454Z,1.90
2023-02-25T04:00:50.326Z,1.60
2023-02-25T04:03:18.470Z,1.87
2023-02-25T04:05:48.566Z,1.50
2023-02-25T04:08:16.765Z,1.63
2023-02-25T04:10:46.635Z,1.70
2023-02-25T04:13:17.197Z,1.33
2023-02-25T04:15:45.703Z,1.93
2023-02-25T04:18:14.076Z,1.60
2023-02-25T04:20:42.633Z,1.60
2023-02-25T04:23:15.046Z,2.30
2023-02-25T04:25:44.155Z,1.90
2023-02-25T04:28:12.485Z,1.40
2023-02-25T04:30:40.565Z,1.40
2023-02-25T04:33:08.780Z,1.40
2023-02-25T04:35:36.711Z,1.40
2023-02-25T04:38:05.271Z,1.43
2023-02-25T04:40:35.505Z,1.37
2023-02-25T04:43:03.349Z,1.40
2023-02-25T04:45:31.298Z,1.40
2023-02-25T04:48:00.358Z,1.77
2023-02-25T04:50:28.320Z,1.50
2023-02-25T04:52:56.317Z,1.57
2023-02-25T04:55:24.146Z,1.60
2023-02-25T04:57:53.367Z,1.40
2023-02-25T05:00:24.508Z,1.37
2023-02-25T05:02:52.378Z,1.40
2023-02-25T05:05:20.748Z,1.50
2023-02-25T05:07:48.649Z,1.10
2023-02-25T05:10:17.632Z,1.90
2023-02-25T05:12:45.518Z,1.43
2023-02-25T05:15:14.864Z,1.60
2023-02-25T05:17:42.791Z,1.17
2023-02-25T05:20:13.143Z,1.50
2023-02-25T05:22:42.403Z,1.30
2023-02-25T05:25:11.394Z,1.10
2023-02-25T05:27:39.451Z,1.33
2023-02-25T05:30:08.786Z,0.90
2023-02-25T05:32:38.716Z,1.10
2023-02-25T05:35:09.773Z,1.00
2023-02-25T05:37:38.432Z,1.00
2023-02-25T05:40:09.175Z,1.20
2023-02-25T05:42:38.280Z,1.03
2023-02-25T05:45:06.980Z,1.00
2023-02-25T05:47:35.754Z,0.97
2023-02-25T05:50:05.613Z,1.20
2023-02-25T05:52:33.508Z,1.00
2023-02-25T05:55:02.013Z,0.93
2023-02-25T05:57:30.484Z,1.00
2023-02-25T05:59:58.416Z,1.53
2023-02-25T06:02:26.423Z,1.20
2023-02-25T06:04:54.525Z,1.10
2023-02-25T06:07:23.751Z,1.00
2023-02-25T06:09:51.607Z,1.10
2023-02-25T06:12:19.541Z,1.20
2023-02-25T06:14:47.488Z,1.30
2023-02-25T06:17:15.362Z,1.30
2023-02-25T06:19:43.223Z,1.07
2023-02-25T06:22:11.068Z,1.07
2023-02-25T06:24:40.774Z,1.20
2023-02-25T06:27:08.731Z,1.00
2023-02-25T06:29:41.824Z,1.53
2023-02-25T06:32:10.202Z,1.67
2023-02-25T06:34:38.314Z,1.17
2023-02-25T06:37:06.463Z,1.30
2023-02-25T06:39:34.621Z,1.00
2023-02-25T06:42:03.931Z,1.00
2023-02-25T06:44:31.817Z,1.00
2023-02-25T06:46:59.737Z,1.27
2023-02-25T06:49:27.654Z,1.67
2023-02-25T06:51:55.557Z,1.47
2023-02-25T06:54:24.274Z,1.00
2023-02-25T06:56:53.190Z,1.27
2023-02-25T06:59:22.745Z,1.20
2023-02-25T07:01:50.779Z,1.20
2023-02-25T07:04:20.534Z,1.20
2023-02-25T07:06:48.522Z,1.50
2023-02-25T07:09:16.646Z,1.10
2023-02-25T07:11:44.548Z,1.17
2023-02-25T07:14:15.857Z,1.00
2023-02-25T07:16:45.050Z,1.37
2023-02-25T07:19:15.093Z,1.40
2023-02-25T07:21:43.718Z,1.37
2023-02-25T07:24:12.199Z,1.60
2023-02-25T07:26:40.583Z,1.30
2023-02-25T07:29:08.485Z,1.30
2023-02-25T07:31:36.431Z,1.13
2023-02-25T07:34:05.686Z,1.20
2023-02-25T07:36:35.255Z,1.30
2023-02-25T07:39:04.550Z,1.23
2023-02-25T07:41:32.438Z,1.40
2023-02-25T07:44:04.900Z,1.03
2023-02-25T07:46:33.152Z,1.10
2023-02-25T07:49:01.216Z,1.50
2023-02-25T07:51:30.518Z,1.10
2023-02-25T07:53:59.185Z,1.07
2023-02-25T07:56:29.175Z,1.27
2023-02-25T07:58:57.532Z,1.17
2023-02-25T08:01:27.524Z,1.10
2023-02-25T08:03:57.198Z,1.20
2023-02-25T08:06:25.290Z,1.40
2023-02-25T08:08:55.243Z,1.00
2023-02-25T08:11:26.211Z,1.20
2023-02-25T08:13:54.426Z,1.20
2023-02-25T08:16:23.755Z,1.37
2023-02-25T08:18:52.917Z,1.40
2023-02-25T08:21:23.407Z,1.30
2023-02-25T08:23:51.934Z,1.27
2023-02-25T08:26:22.531Z,1.53
2023-02-25T08:28:51.601Z,1.53
2023-02-25T08:31:20.581Z,1.77
2023-02-25T08:33:52.563Z,1.60
2023-02-25T08:36:22.257Z,1.20
2023-02-25T08:38:51.255Z,1.20
2023-02-25T08:41:21.922Z,1.13
2023-02-25T08:43:51.353Z,1.27
2023-02-25T08:46:21.323Z,1.00
2023-02-25T08:48:50.048Z,1.37
2023-02-25T08:51:18.419Z,1.10
2023-02-25T08:53:46.623Z,1.30
2023-02-25T08:56:17.052Z,1.33
2023-02-25T08:58:46.366Z,1.20
2023-02-25T09:01:16.880Z,1.30
2023-02-25T09:03:52.812Z,1.37
2023-02-25T09:06:22.451Z,1.00
2023-02-25T09:08:50.428Z,1.40
2023-02-25T09:11:20.164Z,1.23
2023-02-25T09:13:49.423Z,1.50
2023-02-25T09:16:17.927Z,1.40
2023-02-25T09:18:46.156Z,1.40
2023-02-25T09:21:14.928Z,1.40
2023-02-25T09:23:43.954Z,1.20
2023-02-25T09:26:12.448Z,1.27
2023-02-25T09:28:40.774Z,1.03
2023-02-25T09:31:10.158Z,0.70
2023-02-25T09:33:39.114Z,0.80
2023-02-25T09:36:08.863Z,0.70
2023-02-25T09:38:37.446Z,0.80
2023-02-25T09:41:18.114Z,0.70
2023-02-25T09:43:46.680Z,0.90
2023-02-25T09:46:19.842Z,0.83
2023-02-25T09:49:00.770Z,1.00
2023-02-25T09:51:33.896Z,0.87
2023-02-25T09:54:11.902Z,1.13
2023-02-25T09:56:40.048Z,0.50
2023-02-25T09:59:15.108Z,0.90
2023-02-25T10:01:48.549Z,1.10
2023-02-25T10:04:24.245Z,0.70
2023-02-25T10:06:55.942Z,0.80
2023-02-25T10:09:31.399Z,0.80
2023-02-25T10:12:09.968Z,0.83
2023-02-25T10:15:00.770Z,1.00
2023-02-25T10:17:39.125Z,0.90
2023-02-25T10:20:47.874Z,0.70
2023-02-25T10:23:28.829Z,0.80
2023-02-25T10:25:59.851Z,0.80
2023-02-25T10:28:30.936Z,0.70
2023-02-25T10:31:04.802Z,0.80
2023-02-25T10:33:37.063Z,1.20
2023-02-25T10:36:10.220Z,1.57
2023-02-25T10:38:42.927Z,0.77
2023-02-25T10:41:10.838Z,0.63
2023-02-25T10:43:39.136Z,0.80
2023-02-25T10:46:12.302Z,0.80
2023-02-25T10:48:43.256Z,1.07
2023-02-25T10:51:13.591Z,0.90
2023-02-25T10:53:59.366Z,0.90
2023-02-25T10:56:29.810Z,0.80
2023-02-25T10:59:04.717Z,0.87
2023-02-25T11:01:37.672Z,0.97
2023-02-25T11:04:11.909Z,0.97
2023-02-25T11:06:42.549Z,0.70
2023-02-25T11:09:29.484Z,1.00
2023-02-25T11:12:00.022Z,0.63
2023-02-25T11:14:29.309Z,1.20
2023-02-25T11:17:08.958Z,0.93
2023-02-25T11:19:41.127Z,1.03
2023-02-25T11:22:12.149Z,1.20
2023-02-25T11:24:42.826Z,1.20
2023-02-25T11:27:27.663Z,1.10
2023-02-25T11:30:03.597Z,0.90
2023-02-25T11:32:33.481Z,0.90
2023-02-25T11:35:09.195Z,0.87
2023-02-25T11:37:40.807Z,0.90
2023-02-25T11:40:26.058Z,1.27
2023-02-25T11:43:16.939Z,1.10
2023-02-25T11:46:08.487Z,1.10
2023-02-25T11:48:47.530Z,1.10
2023-02-25T11:51:27.583Z,1.07
2023-02-25T11:54:18.860Z,1.10
2023-02-25T11:56:50.995Z,1.13
2023-02-25T11:59:42.519Z,1.20
2023-02-25T12:02:40.799Z,1.43
2023-02-25T12:05:25.447Z,1.70
2023-02-25T12:08:13.396Z,1.10
2023-02-25T12:11:09.016Z,1.20
2023-02-25T12:14:14.926Z,1.10
2023-02-25T12:17:19.372Z,1.20
2023-02-25T12:20:21.651Z,1.23
2023-02-25T12:23:22.435Z,1.20
2023-02-25T12:25:55.296Z,1.73
2023-02-25T12:28:45.518Z,1.50
2023-02-25T12:31:42.918Z,1.10
2023-02-25T12:34:23.873Z,1.30
2023-02-25T12:37:03.482Z,1.20
2023-02-25T12:39:47.859Z,1.10
2023-02-25T12:42:49.291Z,1.40
2023-02-25T12:45:37.850Z,1.57
2023-02-25T12:48:31.723Z,1.80
2023-02-25T12:51:18.075Z,1.93
2023-02-25T12:53:56.329Z,1.70
2023-02-25T12:57:00.350Z,1.77
2023-02-25T12:59:51.800Z,1.80
2023-02-25T13:02:36.739Z,1.50
2023-02-25T13:05:22.419Z,1.73
2023-02-25T13:08:21.102Z,1.50
2023-02-25T13:10:59.131Z,1.57
2023-02-25T13:13:50.684Z,1.57
2023-02-25T13:16:30.784Z,1.33
2023-02-25T13:19:16.316Z,1.30
2023-02-25T13:21:53.585Z,1.63
2023-02-25T13:24:34.297Z,1.30
2023-02-25T13:27:17.876Z,1.83
2023-02-25T13:30:06.164Z,1.30
2023-02-25T13:32:42.924Z,1.50
2023-02-25T13:35:26.811Z,1.00
2023-02-25T13:38:06.077Z,1.30
2023-02-25T13:40:48.165Z,1.20
2023-02-25T13:43:48.548Z,1.20
2023-02-25T13:46:39.613Z,1.17
2023-02-25T13:49:30.300Z,1.37
2023-02-25T13:52:11.595Z,1.20
2023-02-25T13:55:20.303Z,1.10
2023-02-25T13:58:03.234Z,1.20
2023-02-25T14:01:13.828Z,1.77
2023-02-25T14:04:10.055Z,1.03
2023-02-25T14:07:11.905Z,1.17
2023-02-25T14:09:48.787Z,1.20
2023-02-25T14:12:29.109Z,0.83
2023-02-25T14:15:29.552Z,1.40
2023-02-25T14:18:24.038Z,1.00
2023-02-25T14:21:04.655Z,1.50
2023-02-25T14:23:44.898Z,1.20
2023-02-25T14:26:31.758Z,1.43
2023-02-25T14:29:12.585Z,1.40
2023-02-25T14:31:53.220Z,1.20
2023-02-25T14:34:36.480Z,1.20
2023-02-25T14:37:29.863Z,1.47
2023-02-25T14:40:11.612Z,1.30
2023-02-25T14:43:09.408Z,1.30
2023-02-25T14:45:41.154Z,1.30
2023-02-25T14:48:17.835Z,1.20
2023-02-25T14:50:52.256Z,1.10
2023-02-25T14:53:46.761Z,1.30
2023-02-25T14:56:30.294Z,1.40
2023-02-25T14:59:34.643Z,1.50
2023-02-25T15:02:27.690Z,1.00
2023-02-25T15:05:25.635Z,1.07
2023-02-25T15:08:14.799Z,1.30
2023-02-25T15:11:05.728Z,1.10
2023-02-25T15:14:10.823Z,2.10
2023-02-25T15:17:00.213Z,1.10
2023-02-25T15:19:53.135Z,1.70
2023-02-25T15:22:24.817Z,1.20
2023-02-25T15:24:54.244Z,1.30
2023-02-25T15:27:48.121Z,0.93
2023-02-25T15:30:19.100Z,1.40
2023-02-25T15:32:53.320Z,1.27
2023-02-25T15:35:24.208Z,1.80
2023-02-25T15:38:08.907Z,1.27
2023-02-25T15:40:47.235Z,1.40
2023-02-25T15:43:45.808Z,1.20
2023-02-25T15:46:38.561Z,1.30
2023-02-25T15:49:19.428Z,1.20
2023-02-25T15:51:51.399Z,2.30
2023-02-25T15:54:48.462Z,2.90
2023-02-25T15:57:38.751Z,1.87
2023-02-25T16:00:40.169Z,1.90
2023-02-25T16:03:28.012Z,3.33
2023-02-25T16:06:01.051Z,2.87
2023-02-25T16:08:31.271Z,3.43
2023-02-25T16:11:01.284Z,2.13
2023-02-25T16:13:32.441Z,4.10
2023-02-25T16:16:02.298Z,5.63
2023-02-25T16:18:36.436Z,2.00
2023-02-25T16:21:07.134Z,2.10
2023-02-25T16:23:41.628Z,2.53
2023-02-25T16:26:19.688Z,2.33
2023-02-25T16:28:54.887Z,2.83
2023-02-25T16:32:24.217Z,1.80
2023-02-25T16:34:58.194Z,2.20
2023-02-25T16:37:31.568Z,1.70
2023-02-25T16:39:59.815Z,2.00
2023-02-25T16:42:27.931Z,2.50
2023-02-25T16:45:02.211Z,2.20
2023-02-25T16:47:32.795Z,2.33
2023-02-25T16:50:07.808Z,2.13
2023-02-25T16:52:41.927Z,3.13
2023-02-25T16:55:12.893Z,2.00
2023-02-25T16:57:40.934Z,2.10
2023-02-25T17:00:17.074Z,2.10
2023-02-25T17:02:47.542Z,2.40
2023-02-25T17:05:36.567Z,2.30
2023-02-25T17:08:14.986Z,2.40
2023-02-25T17:10:47.166Z,2.23
2023-02-25T17:13:25.787Z,2.20
2023-02-25T17:15:54.032Z,2.13
2023-02-25T17:18:27.088Z,2.00
2023-02-25T17:21:02.998Z,2.90
2023-02-25T17:23:32.140Z,2.10
2023-02-25T17:26:00.613Z,2.00
2023-02-25T17:28:32.200Z,2.57
2023-02-25T17:31:08.397Z,2.60
2023-02-25T17:33:37.352Z,3.00
2023-02-25T17:36:12.037Z,1.90
2023-02-25T17:38:40.069Z,1.80
2023-02-25T17:41:08.111Z,1.63
2023-02-25T17:43:38.945Z,1.80
2023-02-25T17:46:18.468Z,2.00
2023-02-25T17:48:52.886Z,1.40
2023-02-25T17:51:33.705Z,1.67
2023-02-25T17:54:07.623Z,1.57
2023-02-25T17:56:37.992Z,1.37
2023-02-25T17:59:24.733Z,2.40
2023-02-25T18:01:56.418Z,1.60
2023-02-25T18:04:33.116Z,1.83
2023-02-25T18:07:21.815Z,1.70
2023-02-25T18:09:50.977Z,1.50
2023-02-25T18:12:26.194Z,2.03
2023-02-25T18:14:57.278Z,1.80
2023-02-25T18:17:28.422Z,2.07
2023-02-25T18:19:58.257Z,2.10
2023-02-25T18:22:32.850Z,1.90
2023-02-25T18:25:03.096Z,6.20
2023-02-25T18:27:33.383Z,5.60
2023-02-25T18:30:18.032Z,3.73
2023-02-25T18:32:46.546Z,2.00
2023-02-25T18:35:15.202Z,1.90
2023-02-25T18:37:45.679Z,1.70
2023-02-25T18:40:18.799Z,1.73
2023-02-25T18:42:46.700Z,1.87
2023-02-25T18:45:16.447Z,2.30
2023-02-25T18:47:44.622Z,2.23
2023-02-25T18:50:13.093Z,2.07
2023-02-25T18:52:42.104Z,2.37
2023-02-25T18:55:18.684Z,2.20
2023-02-25T18:57:46.668Z,2.30
2023-02-25T19:00:16.959Z,2.13
2023-02-25T19:02:48.725Z,2.40
2023-02-25T19:05:17.200Z,4.27
2023-02-25T19:07:45.822Z,3.63
2023-02-25T19:10:22.884Z,3.50
2023-02-25T19:12:52.364Z,3.47
2023-02-25T19:15:23.070Z,3.73
2023-02-25T19:17:51.227Z,3.17
2023-02-25T19:20:21.333Z,3.40
2023-02-25T19:22:50.922Z,3.57
2023-02-25T19:25:23.014Z,3.37
2023-02-25T19:27:52.142Z,3.30
2023-02-25T19:30:22.648Z,3.10
2023-02-25T19:32:50.793Z,2.40
2023-02-25T19:35:19.018Z,3.03
2023-02-25T19:37:47.058Z,2.67
2023-02-25T19:40:17.270Z,2.60
2023-02-25T19:42:47.144Z,2.67
2023-02-25T19:45:16.639Z,2.80
2023-02-25T19:47:45.809Z,2.40
2023-02-25T19:50:15.372Z,2.30
2023-02-25T19:52:43.719Z,2.20
2023-02-25T19:55:12.730Z,2.10
2023-02-25T19:57:41.484Z,2.53
2023-02-25T20:00:14.871Z,2.70
2023-02-25T20:02:43.282Z,2.50
2023-02-25T20:05:11.752Z,2.40
2023-02-25T20:07:40.117Z,2.30
2023-02-25T20:10:10.916Z,2.30
2023-02-25T20:12:38.997Z,2.20
2023-02-25T20:15:08.109Z,2.40
2023-02-25T20:17:38.281Z,6.00
2023-02-25T20:20:08.346Z,2.83
2023-02-25T20:22:36.461Z,2.10
2023-02-25T20:25:04.761Z,2.10
2023-02-25T20:27:33.290Z,2.80
2023-02-25T20:30:01.330Z,2.07
2023-02-25T20:32:29.968Z,1.90
2023-02-25T20:35:00.109Z,2.13
2023-02-25T20:37:32.914Z,2.10
2023-02-25T20:40:01.636Z,2.13
2023-02-25T20:42:31.286Z,2.80
2023-02-25T20:45:01.748Z,2.50
2023-02-25T20:47:36.047Z,2.80
2023-02-25T20:50:07.195Z,2.23
2023-02-25T20:52:35.366Z,1.80
2023-02-25T20:55:04.882Z,2.17
2023-02-25T20:57:35.305Z,2.10
2023-02-25T21:00:03.468Z,1.80
2023-02-25T21:02:31.492Z,2.37
2023-02-25T21:04:59.684Z,4.50
2023-02-25T21:07:28.946Z,3.03
2023-02-25T21:09:57.038Z,2.40
2023-02-25T21:12:25.223Z,1.97
2023-02-25T21:14:53.285Z,1.93
2023-02-25T21:17:21.142Z,2.47
2023-02-25T21:19:49.263Z,2.00
2023-02-25T21:22:17.185Z,2.00
2023-02-25T21:24:46.387Z,2.33
2023-02-25T21:27:14.370Z,2.00
2023-02-25T21:29:42.240Z,2.13
2023-02-25T21:32:10.226Z,1.77
2023-02-25T21:34:38.140Z,1.70
2023-02-25T21:37:06.078Z,1.63
2023-02-25T21:39:34.076Z,1.37
2023-02-25T21:42:03.339Z,2.13
2023-02-25T21:44:31.185Z,1.30
2023-02-25T21:46:59.112Z,1.80
2023-02-25T21:49:30.826Z,1.43
2023-02-25T21:51:59.595Z,1.50
2023-02-25T21:54:27.450Z,1.50
2023-02-25T21:56:55.432Z,1.80
2023-02-25T21:59:25.976Z,1.67
2023-02-25T22:01:54.088Z,1.80
2023-02-25T22:04:22.010Z,1.70
2023-02-25T22:06:50.093Z,1.80
2023-02-25T22:09:19.919Z,1.70
2023-02-25T22:11:48.292Z,1.70
2023-02-25T22:14:16.190Z,1.60
2023-02-25T22:16:45.501Z,1.50
2023-02-25T22:19:13.378Z,1.80
2023-02-25T22:21:41.265Z,1.80
2023-02-25T22:24:09.661Z,2.13
2023-02-25T22:26:37.920Z,2.30
2023-02-25T22:29:09.120Z,2.47
2023-02-25T22:31:37.722Z,2.10
2023-02-25T22:34:08.067Z,2.30
2023-02-25T22:36:36.276Z,2.37
2023-02-25T22:39:05.554Z,3.10
2023-02-25T22:41:33.455Z,2.60
2023-02-25T22:44:02.156Z,2.40
2023-02-25T22:46:32.358Z,2.23
2023-02-25T22:49:00.425Z,1.70
2023-02-25T22:51:31.194Z,1.47
2023-02-25T22:53:59.548Z,1.80
2023-02-25T22:56:28.313Z,2.03
2023-02-25T22:58:56.288Z,1.90
2023-02-25T23:01:25.785Z,1.53
2023-02-25T23:03:55.342Z,1.67
2023-02-25T23:06:34.418Z,2.10
2023-02-25T23:09:10.302Z,1.53
2023-02-25T23:11:40.629Z,1.80
2023-02-25T23:14:08.512Z,1.70
2023-02-25T23:16:40.295Z,1.90
2023-02-25T23:19:09.512Z,1.60
2023-02-25T23:21:38.764Z,1.80
2023-02-25T23:24:08.360Z,1.67
2023-02-25T23:26:41.438Z,1.70
2023-02-25T23:29:11.769Z,1.60
2023-02-25T23:31:43.691Z,1.63
2023-02-25T23:34:14.279Z,1.60
2023-02-25T23:36:44.332Z,1.50
2023-02-25T23:39:14.293Z,1.67
2023-02-25T23:41:44.089Z,1.77
2023-02-25T23:44:13.031Z,1.60
2023-02-25T23:46:43.194Z,1.63
2023-02-25T23:49:14.096Z,1.60
2023-02-25T23:51:43.199Z,2.17
2023-02-25T23:54:14.604Z,1.80
2023-02-25T23:56:43.863Z,2.17
2023-02-25T23:59:12.239Z,1.80
